sensor_id;sensor_type;location;lat;lon;timestamp;P1;durP1;ratioP1;P2;durP2;ratioP2
6077;SDS011;3067;49.470;10.394;2023-12-20T00:02:05;5.17;;;4.60;;
6077;SDS011;3067;49.470;10.394;2023-12-20T00:04:32;3.33;;;3.00;;
6077;SDS011;3067;49.470;10.394;2023-12-20T00:06:59;3.23;;;3.03;;
6077;SDS011;3067;49.470;10.394;2023-12-20T00:09:26;3.20;;;3.00;;
6077;SDS011;3067;49.470;10.394;2023-12-20T00:11:53;2.40;;;2.30;;
6077;SDS011;3067;49.470;10.394;2023-12-20T00:14:20;2.80;;;2.60;;
6077;SDS011;3067;49.470;10.394;2023-12-20T00:16:47;3.87;;;2.70;;
6077;SDS011;3067;49.470;10.394;2023-12-20T00:19:16;2.40;;;2.30;;
6077;SDS011;3067;49.470;10.394;2023-12-20T00:21:43;2.67;;;2.50;;
6077;SDS011;3067;49.470;10.394;2023-12-20T00:24:10;3.07;;;2.43;;
6077;SDS011;3067;49.470;10.394;2023-12-20T00:26:37;2.40;;;2.30;;
6077;SDS011;3067;49.470;10.394;2023-12-20T00:29:04;2.77;;;2.60;;
6077;SDS011;3067;49.470;10.394;2023-12-20T00:31:31;3.00;;;2.47;;
6077;SDS011;3067;49.470;10.394;2023-12-20T00:33:58;3.37;;;2.23;;
6077;SDS011;3067;49.470;10.394;2023-12-20T00:36:26;2.00;;;2.00;;
6077;SDS011;3067;49.470;10.394;2023-12-20T00:38:53;2.80;;;2.70;;
6077;SDS011;3067;49.470;10.394;2023-12-20T00:41:20;2.07;;;1.97;;
6077;SDS011;3067;49.470;10.394;2023-12-20T00:43:47;2.53;;;2.43;;
6077;SDS011;3067;49.470;10.394;2023-12-20T00:46:15;3.00;;;2.90;;
6077;SDS011;3067;49.470;10.394;2023-12-20T00:48:42;2.30;;;2.10;;
6077;SDS011;3067;49.470;10.394;2023-12-20T00:51:10;2.57;;;2.47;;
6077;SDS011;3067;49.470;10.394;2023-12-20T00:53:39;2.43;;;2.30;;
6077;SDS011;3067;49.470;10.394;2023-12-20T00:56:06;3.10;;;2.90;;
6077;SDS011;3067;49.470;10.394;2023-12-20T00:58:33;2.67;;;2.57;;
6077;SDS011;3067;49.470;10.394;2023-12-20T01:01:00;3.13;;;2.30;;
6077;SDS011;3067;49.470;10.394;2023-12-20T01:03:27;4.10;;;2.60;;
6077;SDS011;3067;49.470;10.394;2023-12-20T01:05:55;3.33;;;2.50;;
6077;SDS011;3067;49.470;10.394;2023-12-20T01:08:22;2.23;;;2.13;;
6077;SDS011;3067;49.470;10.394;2023-12-20T01:10:51;7.10;;;2.87;;
6077;SDS011;3067;49.470;10.394;2023-12-20T01:13:18;2.20;;;2.20;;
6077;SDS011;3067;49.470;10.394;2023-12-20T01:15:45;2.90;;;2.70;;
6077;SDS011;3067;49.470;10.394;2023-12-20T01:18:13;1.90;;;1.80;;
6077;SDS011;3067;49.470;10.394;2023-12-20T01:20:40;2.60;;;2.40;;
6077;SDS011;3067;49.470;10.394;2023-12-20T01:23:07;2.40;;;2.30;;
6077;SDS011;3067;49.470;10.394;2023-12-20T01:25:34;2.50;;;2.40;;
6077;SDS011;3067;49.470;10.394;2023-12-20T01:28:03;2.17;;;2.07;;
6077;SDS011;3067;49.470;10.394;2023-12-20T01:30:30;2.10;;;2.00;;
6077;SDS011;3067;49.470;10.394;2023-12-20T01:32:59;2.20;;;2.10;;
6077;SDS011;3067;49.470;10.394;2023-12-20T01:35:26;2.00;;;1.90;;
6077;SDS011;3067;49.470;10.394;2023-12-20T01:37:53;2.00;;;1.90;;
6077;SDS011;3067;49.470;10.394;2023-12-20T01:40:21;2.00;;;1.90;;
6077;SDS011;3067;49.470;10.394;2023-12-20T01:42:57;2.13;;;2.03;;
6077;SDS011;3067;49.470;10.394;2023-12-20T01:45:26;1.97;;;1.87;;
6077;SDS011;3067;49.470;10.394;2023-12-20T01:47:53;1.77;;;1.77;;
6077;SDS011;3067;49.470;10.394;2023-12-20T01:50:22;1.63;;;1.60;;
6077;SDS011;3067;49.470;10.394;2023-12-20T01:52:49;1.60;;;1.50;;
6077;SDS011;3067;49.470;10.394;2023-12-20T01:55:18;1.53;;;1.43;;
6077;SDS011;3067;49.470;10.394;2023-12-20T01:57:45;1.47;;;1.47;;
6077;SDS011;3067;49.470;10.394;2023-12-20T02:00:13;1.50;;;1.50;;
6077;SDS011;3067;49.470;10.394;2023-12-20T02:02:43;1.60;;;1.60;;
6077;SDS011;3067;49.470;10.394;2023-12-20T02:05:11;1.40;;;1.40;;
6077;SDS011;3067;49.470;10.394;2023-12-20T02:07:39;1.70;;;1.70;;
6077;SDS011;3067;49.470;10.394;2023-12-20T02:10:06;1.40;;;1.30;;
6077;SDS011;3067;49.470;10.394;2023-12-20T02:12:34;1.30;;;1.30;;
6077;SDS011;3067;49.470;10.394;2023-12-20T02:15:01;3.27;;;1.37;;
6077;SDS011;3067;49.470;10.394;2023-12-20T02:17:31;1.57;;;1.57;;
6077;SDS011;3067;49.470;10.394;2023-12-20T02:20:00;4.20;;;1.13;;
6077;SDS011;3067;49.470;10.394;2023-12-20T02:22:30;1.40;;;1.40;;
6077;SDS011;3067;49.470;10.394;2023-12-20T02:24:57;2.20;;;1.37;;
6077;SDS011;3067;49.470;10.394;2023-12-20T02:27:24;4.50;;;1.30;;
6077;SDS011;3067;49.470;10.394;2023-12-20T02:29:51;2.23;;;1.07;;
6077;SDS011;3067;49.470;10.394;2023-12-20T02:32:18;1.40;;;1.30;;
6077;SDS011;3067;49.470;10.394;2023-12-20T02:34:47;1.20;;;1.20;;
6077;SDS011;3067;49.470;10.394;2023-12-20T02:37:14;1.30;;;1.30;;
6077;SDS011;3067;49.470;10.394;2023-12-20T02:39:43;1.13;;;1.13;;
6077;SDS011;3067;49.470;10.394;2023-12-20T02:42:10;1.40;;;1.30;;
6077;SDS011;3067;49.470;10.394;2023-12-20T02:44:37;1.20;;;1.20;;
6077;SDS011;3067;49.470;10.394;2023-12-20T02:47:04;1.30;;;1.30;;
6077;SDS011;3067;49.470;10.394;2023-12-20T02:49:31;1.40;;;1.40;;
6077;SDS011;3067;49.470;10.394;2023-12-20T02:51:58;1.60;;;1.50;;
6077;SDS011;3067;49.470;10.394;2023-12-20T02:54:25;1.20;;;1.20;;
6077;SDS011;3067;49.470;10.394;2023-12-20T02:56:54;1.57;;;1.57;;
6077;SDS011;3067;49.470;10.394;2023-12-20T02:59:21;1.00;;;1.00;;
6077;SDS011;3067;49.470;10.394;2023-12-20T03:01:48;1.53;;;1.43;;
6077;SDS011;3067;49.470;10.394;2023-12-20T03:04:15;1.30;;;1.30;;
6077;SDS011;3067;49.470;10.394;2023-12-20T03:06:42;1.50;;;1.50;;
6077;SDS011;3067;49.470;10.394;2023-12-20T03:09:09;1.50;;;1.50;;
6077;SDS011;3067;49.470;10.394;2023-12-20T03:11:36;1.50;;;1.40;;
6077;SDS011;3067;49.470;10.394;2023-12-20T03:14:04;1.40;;;1.37;;
6077;SDS011;3067;49.470;10.394;2023-12-20T03:16:31;1.40;;;1.40;;
6077;SDS011;3067;49.470;10.394;2023-12-20T03:18:58;1.30;;;1.30;;
6077;SDS011;3067;49.470;10.394;2023-12-20T03:21:25;1.23;;;1.23;;
6077;SDS011;3067;49.470;10.394;2023-12-20T03:23:52;1.23;;;1.23;;
6077;SDS011;3067;49.470;10.394;2023-12-20T03:26:19;1.33;;;1.33;;
6077;SDS011;3067;49.470;10.394;2023-12-20T03:28:47;1.30;;;1.30;;
6077;SDS011;3067;49.470;10.394;2023-12-20T03:31:16;1.83;;;1.70;;
6077;SDS011;3067;49.470;10.394;2023-12-20T03:33:43;1.70;;;1.70;;
6077;SDS011;3067;49.470;10.394;2023-12-20T03:36:10;1.70;;;1.70;;
6077;SDS011;3067;49.470;10.394;2023-12-20T03:38:37;1.40;;;1.30;;
6077;SDS011;3067;49.470;10.394;2023-12-20T03:41:04;1.37;;;1.27;;
6077;SDS011;3067;49.470;10.394;2023-12-20T03:43:31;1.37;;;1.37;;
6077;SDS011;3067;49.470;10.394;2023-12-20T03:45:58;1.50;;;1.40;;
6077;SDS011;3067;49.470;10.394;2023-12-20T03:48:26;1.53;;;1.40;;
6077;SDS011;3067;49.470;10.394;2023-12-20T03:50:53;1.80;;;1.70;;
6077;SDS011;3067;49.470;10.394;2023-12-20T03:53:20;1.37;;;1.37;;
6077;SDS011;3067;49.470;10.394;2023-12-20T03:55:48;1.30;;;1.20;;
6077;SDS011;3067;49.470;10.394;2023-12-20T03:58:15;1.37;;;1.37;;
6077;SDS011;3067;49.470;10.394;2023-12-20T04:00:42;1.10;;;1.10;;
6077;SDS011;3067;49.470;10.394;2023-12-20T04:03:09;1.43;;;1.43;;
6077;SDS011;3067;49.470;10.394;2023-12-20T04:05:39;1.40;;;1.30;;
6077;SDS011;3067;49.470;10.394;2023-12-20T04:08:06;1.73;;;1.40;;
6077;SDS011;3067;49.470;10.394;2023-12-20T04:10:34;1.03;;;1.03;;
6077;SDS011;3067;49.470;10.394;2023-12-20T04:13:02;1.10;;;1.10;;
6077;SDS011;3067;49.470;10.394;2023-12-20T04:15:29;1.23;;;1.23;;
6077;SDS011;3067;49.470;10.394;2023-12-20T04:17:56;0.93;;;0.93;;
6077;SDS011;3067;49.470;10.394;2023-12-20T04:20:23;0.90;;;0.90;;
6077;SDS011;3067;49.470;10.394;2023-12-20T04:22:52;1.13;;;1.13;;
6077;SDS011;3067;49.470;10.394;2023-12-20T04:25:19;1.00;;;1.00;;
6077;SDS011;3067;49.470;10.394;2023-12-20T04:27:46;1.10;;;1.00;;
6077;SDS011;3067;49.470;10.394;2023-12-20T04:30:13;1.20;;;1.20;;
6077;SDS011;3067;49.470;10.394;2023-12-20T04:32:40;1.00;;;1.00;;
6077;SDS011;3067;49.470;10.394;2023-12-20T04:35:07;1.10;;;1.10;;
6077;SDS011;3067;49.470;10.394;2023-12-20T04:37:34;1.00;;;1.00;;
6077;SDS011;3067;49.470;10.394;2023-12-20T04:40:03;1.10;;;1.10;;
6077;SDS011;3067;49.470;10.394;2023-12-20T04:42:32;1.37;;;1.37;;
6077;SDS011;3067;49.470;10.394;2023-12-20T04:44:59;3.27;;;1.23;;
6077;SDS011;3067;49.470;10.394;2023-12-20T04:47:26;1.17;;;1.17;;
6077;SDS011;3067;49.470;10.394;2023-12-20T04:49:54;1.00;;;1.00;;
6077;SDS011;3067;49.470;10.394;2023-12-20T04:52:21;1.13;;;1.13;;
6077;SDS011;3067;49.470;10.394;2023-12-20T04:54:48;1.10;;;1.10;;
6077;SDS011;3067;49.470;10.394;2023-12-20T04:57:17;1.33;;;1.23;;
6077;SDS011;3067;49.470;10.394;2023-12-20T04:59:44;1.10;;;1.10;;
6077;SDS011;3067;49.470;10.394;2023-12-20T05:02:11;1.10;;;1.10;;
6077;SDS011;3067;49.470;10.394;2023-12-20T05:04:38;1.03;;;1.03;;
6077;SDS011;3067;49.470;10.394;2023-12-20T05:07:05;1.03;;;1.00;;
6077;SDS011;3067;49.470;10.394;2023-12-20T05:09:32;1.00;;;1.00;;
6077;SDS011;3067;49.470;10.394;2023-12-20T05:11:59;1.27;;;1.17;;
6077;SDS011;3067;49.470;10.394;2023-12-20T05:14:28;1.13;;;1.03;;
6077;SDS011;3067;49.470;10.394;2023-12-20T05:16:55;2.00;;;1.30;;
6077;SDS011;3067;49.470;10.394;2023-12-20T05:19:22;1.03;;;1.03;;
6077;SDS011;3067;49.470;10.394;2023-12-20T05:21:50;1.20;;;1.20;;
6077;SDS011;3067;49.470;10.394;2023-12-20T05:24:17;1.40;;;1.40;;
6077;SDS011;3067;49.470;10.394;2023-12-20T05:26:44;1.13;;;1.13;;
6077;SDS011;3067;49.470;10.394;2023-12-20T05:29:11;1.27;;;1.20;;
6077;SDS011;3067;49.470;10.394;2023-12-20T05:31:39;1.20;;;1.20;;
6077;SDS011;3067;49.470;10.394;2023-12-20T05:34:06;1.00;;;1.00;;
6077;SDS011;3067;49.470;10.394;2023-12-20T05:36:34;1.30;;;1.30;;
6077;SDS011;3067;49.470;10.394;2023-12-20T05:39:01;1.33;;;1.33;;
6077;SDS011;3067;49.470;10.394;2023-12-20T05:41:28;1.20;;;1.20;;
6077;SDS011;3067;49.470;10.394;2023-12-20T05:43:55;1.50;;;1.50;;
6077;SDS011;3067;49.470;10.394;2023-12-20T05:46:23;1.70;;;1.70;;
6077;SDS011;3067;49.470;10.394;2023-12-20T05:48:51;1.53;;;1.30;;
6077;SDS011;3067;49.470;10.394;2023-12-20T05:51:18;1.63;;;1.57;;
6077;SDS011;3067;49.470;10.394;2023-12-20T05:53:45;1.83;;;1.83;;
6077;SDS011;3067;49.470;10.394;2023-12-20T05:56:14;1.30;;;1.30;;
6077;SDS011;3067;49.470;10.394;2023-12-20T05:58:42;2.30;;;2.20;;
6077;SDS011;3067;49.470;10.394;2023-12-20T06:01:09;1.83;;;1.83;;
6077;SDS011;3067;49.470;10.394;2023-12-20T06:03:36;2.10;;;2.00;;
6077;SDS011;3067;49.470;10.394;2023-12-20T06:06:06;2.70;;;2.60;;
6077;SDS011;3067;49.470;10.394;2023-12-20T06:08:33;2.63;;;2.53;;
6077;SDS011;3067;49.470;10.394;2023-12-20T06:11:00;2.73;;;2.53;;
6077;SDS011;3067;49.470;10.394;2023-12-20T06:13:28;2.50;;;2.30;;
6077;SDS011;3067;49.470;10.394;2023-12-20T06:15:55;2.17;;;2.17;;
6077;SDS011;3067;49.470;10.394;2023-12-20T06:18:22;2.40;;;2.30;;
6077;SDS011;3067;49.470;10.394;2023-12-20T06:20:49;2.70;;;2.57;;
6077;SDS011;3067;49.470;10.394;2023-12-20T06:23:18;2.70;;;2.60;;
6077;SDS011;3067;49.470;10.394;2023-12-20T06:25:45;2.60;;;2.50;;
6077;SDS011;3067;49.470;10.394;2023-12-20T06:28:12;2.60;;;2.50;;
6077;SDS011;3067;49.470;10.394;2023-12-20T06:30:40;2.20;;;2.10;;
6077;SDS011;3067;49.470;10.394;2023-12-20T06:33:06;1.70;;;1.70;;
6077;SDS011;3067;49.470;10.394;2023-12-20T06:35:35;2.00;;;2.00;;
6077;SDS011;3067;49.470;10.394;2023-12-20T06:38:02;2.10;;;2.00;;
6077;SDS011;3067;49.470;10.394;2023-12-20T06:40:31;2.50;;;2.40;;
6077;SDS011;3067;49.470;10.394;2023-12-20T06:42:58;2.40;;;2.03;;
6077;SDS011;3067;49.470;10.394;2023-12-20T06:45:25;1.83;;;1.83;;
6077;SDS011;3067;49.470;10.394;2023-12-20T06:47:52;2.50;;;2.40;;
6077;SDS011;3067;49.470;10.394;2023-12-20T06:50:20;2.80;;;2.70;;
6077;SDS011;3067;49.470;10.394;2023-12-20T06:52:47;2.53;;;2.43;;
6077;SDS011;3067;49.470;10.394;2023-12-20T06:55:14;2.97;;;2.77;;
6077;SDS011;3067;49.470;10.394;2023-12-20T06:57:43;2.23;;;2.23;;
6077;SDS011;3067;49.470;10.394;2023-12-20T07:00:11;2.90;;;2.77;;
6077;SDS011;3067;49.470;10.394;2023-12-20T07:02:39;2.67;;;2.57;;
6077;SDS011;3067;49.470;10.394;2023-12-20T07:05:06;2.90;;;2.80;;
6077;SDS011;3067;49.470;10.394;2023-12-20T07:07:33;3.20;;;3.00;;
6077;SDS011;3067;49.470;10.394;2023-12-20T07:10:00;2.90;;;2.80;;
6077;SDS011;3067;49.470;10.394;2023-12-20T07:12:27;2.93;;;2.80;;
6077;SDS011;3067;49.470;10.394;2023-12-20T07:14:56;3.10;;;3.00;;
6077;SDS011;3067;49.470;10.394;2023-12-20T07:17:23;3.40;;;3.10;;
6077;SDS011;3067;49.470;10.394;2023-12-20T07:19:50;3.60;;;3.30;;
6077;SDS011;3067;49.470;10.394;2023-12-20T07:22:17;3.23;;;3.03;;
6077;SDS011;3067;49.470;10.394;2023-12-20T07:24:44;3.73;;;3.53;;
6077;SDS011;3067;49.470;10.394;2023-12-20T07:27:11;3.90;;;3.70;;
6077;SDS011;3067;49.470;10.394;2023-12-20T07:29:38;3.20;;;3.10;;
6077;SDS011;3067;49.470;10.394;2023-12-20T07:32:07;3.27;;;3.10;;
6077;SDS011;3067;49.470;10.394;2023-12-20T07:34:34;2.90;;;2.80;;
6077;SDS011;3067;49.470;10.394;2023-12-20T07:37:01;3.00;;;2.90;;
6077;SDS011;3067;49.470;10.394;2023-12-20T07:39:28;3.33;;;3.10;;
6077;SDS011;3067;49.470;10.394;2023-12-20T07:41:55;3.20;;;2.90;;
6077;SDS011;3067;49.470;10.394;2023-12-20T07:44:22;3.37;;;3.23;;
6077;SDS011;3067;49.470;10.394;2023-12-20T07:46:49;2.70;;;2.60;;
6077;SDS011;3067;49.470;10.394;2023-12-20T07:49:17;2.40;;;2.30;;
6077;SDS011;3067;49.470;10.394;2023-12-20T07:51:45;2.77;;;2.67;;
6077;SDS011;3067;49.470;10.394;2023-12-20T07:54:12;3.33;;;3.13;;
6077;SDS011;3067;49.470;10.394;2023-12-20T07:56:39;2.73;;;2.63;;
6077;SDS011;3067;49.470;10.394;2023-12-20T07:59:06;3.20;;;3.00;;
6077;SDS011;3067;49.470;10.394;2023-12-20T08:01:33;2.53;;;2.43;;
6077;SDS011;3067;49.470;10.394;2023-12-20T08:04:01;2.60;;;2.03;;
6077;SDS011;3067;49.470;10.394;2023-12-20T08:06:29;2.50;;;2.33;;
6077;SDS011;3067;49.470;10.394;2023-12-20T08:08:56;2.53;;;2.33;;
6077;SDS011;3067;49.470;10.394;2023-12-20T08:11:23;2.53;;;2.43;;
6077;SDS011;3067;49.470;10.394;2023-12-20T08:13:50;2.80;;;2.70;;
6077;SDS011;3067;49.470;10.394;2023-12-20T08:16:17;2.63;;;2.53;;
6077;SDS011;3067;49.470;10.394;2023-12-20T08:18:45;3.23;;;3.00;;
6077;SDS011;3067;49.470;10.394;2023-12-20T08:21:12;2.50;;;2.40;;
6077;SDS011;3067;49.470;10.394;2023-12-20T08:23:40;3.07;;;2.70;;
6077;SDS011;3067;49.470;10.394;2023-12-20T08:26:07;2.60;;;2.50;;
6077;SDS011;3067;49.470;10.394;2023-12-20T08:28:34;2.90;;;2.80;;
6077;SDS011;3067;49.470;10.394;2023-12-20T08:31:02;2.17;;;2.07;;
6077;SDS011;3067;49.470;10.394;2023-12-20T08:33:30;2.40;;;2.30;;
6077;SDS011;3067;49.470;10.394;2023-12-20T08:35:57;2.83;;;2.63;;
6077;SDS011;3067;49.470;10.394;2023-12-20T08:38:24;2.53;;;2.43;;
6077;SDS011;3067;49.470;10.394;2023-12-20T08:40:52;2.30;;;2.20;;
6077;SDS011;3067;49.470;10.394;2023-12-20T08:43:19;2.20;;;2.00;;
6077;SDS011;3067;49.470;10.394;2023-12-20T08:45:46;2.03;;;1.90;;
6077;SDS011;3067;49.470;10.394;2023-12-20T08:48:13;2.53;;;2.20;;
6077;SDS011;3067;49.470;10.394;2023-12-20T08:50:40;4.00;;;2.50;;
6077;SDS011;3067;49.470;10.394;2023-12-20T08:53:08;1.70;;;1.70;;
6077;SDS011;3067;49.470;10.394;2023-12-20T08:55:35;3.97;;;2.47;;
6077;SDS011;3067;49.470;10.394;2023-12-20T08:58:03;2.10;;;2.00;;
6077;SDS011;3067;49.470;10.394;2023-12-20T09:00:32;3.10;;;1.93;;
6077;SDS011;3067;49.470;10.394;2023-12-20T09:02:59;2.57;;;2.47;;
6077;SDS011;3067;49.470;10.394;2023-12-20T09:05:27;3.00;;;2.07;;
6077;SDS011;3067;49.470;10.394;2023-12-20T09:07:55;4.40;;;1.70;;
6077;SDS011;3067;49.470;10.394;2023-12-20T09:10:21;8.57;;;2.03;;
6077;SDS011;3067;49.470;10.394;2023-12-20T09:12:48;2.73;;;1.97;;
6077;SDS011;3067;49.470;10.394;2023-12-20T09:15:17;2.33;;;2.13;;
6077;SDS011;3067;49.470;10.394;2023-12-20T09:17:44;4.00;;;2.93;;
6077;SDS011;3067;49.470;10.394;2023-12-20T09:20:11;7.57;;;2.67;;
6077;SDS011;3067;49.470;10.394;2023-12-20T09:22:39;3.53;;;3.30;;
6077;SDS011;3067;49.470;10.394;2023-12-20T09:25:07;2.77;;;1.87;;
6077;SDS011;3067;49.470;10.394;2023-12-20T09:27:35;2.43;;;1.93;;
6077;SDS011;3067;49.470;10.394;2023-12-20T09:30:02;1.50;;;1.40;;
6077;SDS011;3067;49.470;10.394;2023-12-20T09:32:31;1.90;;;1.70;;
6077;SDS011;3067;49.470;10.394;2023-12-20T09:34:58;1.90;;;1.80;;
6077;SDS011;3067;49.470;10.394;2023-12-20T09:37:26;1.77;;;1.50;;
6077;SDS011;3067;49.470;10.394;2023-12-20T09:39:53;2.23;;;1.87;;
6077;SDS011;3067;49.470;10.394;2023-12-20T09:42:21;3.90;;;1.60;;
6077;SDS011;3067;49.470;10.394;2023-12-20T09:44:59;1.97;;;1.80;;
6077;SDS011;3067;49.470;10.394;2023-12-20T09:47:29;2.70;;;2.60;;
6077;SDS011;3067;49.470;10.394;2023-12-20T09:49:58;5.80;;;1.63;;
6077;SDS011;3067;49.470;10.394;2023-12-20T09:52:25;4.30;;;1.90;;
6077;SDS011;3067;49.470;10.394;2023-12-20T09:54:52;4.50;;;2.13;;
6077;SDS011;3067;49.470;10.394;2023-12-20T09:57:21;2.10;;;1.20;;
6077;SDS011;3067;49.470;10.394;2023-12-20T09:59:48;2.70;;;1.70;;
6077;SDS011;3067;49.470;10.394;2023-12-20T10:02:15;7.10;;;1.80;;
6077;SDS011;3067;49.470;10.394;2023-12-20T10:04:46;2.60;;;1.63;;
6077;SDS011;3067;49.470;10.394;2023-12-20T10:07:15;3.33;;;1.70;;
6077;SDS011;3067;49.470;10.394;2023-12-20T10:09:42;1.80;;;1.70;;
6077;SDS011;3067;49.470;10.394;2023-12-20T10:12:10;4.40;;;1.70;;
6077;SDS011;3067;49.470;10.394;2023-12-20T10:14:38;6.03;;;2.23;;
6077;SDS011;3067;49.470;10.394;2023-12-20T10:17:05;2.80;;;1.50;;
6077;SDS011;3067;49.470;10.394;2023-12-20T10:19:33;3.23;;;1.80;;
6077;SDS011;3067;49.470;10.394;2023-12-20T10:22:00;1.90;;;1.53;;
6077;SDS011;3067;49.470;10.394;2023-12-20T10:24:31;2.00;;;1.60;;
6077;SDS011;3067;49.470;10.394;2023-12-20T10:27:01;2.20;;;1.60;;
6077;SDS011;3067;49.470;10.394;2023-12-20T10:29:31;1.70;;;1.60;;
6077;SDS011;3067;49.470;10.394;2023-12-20T10:31:59;5.67;;;1.60;;
6077;SDS011;3067;49.470;10.394;2023-12-20T10:34:47;3.87;;;1.80;;
6077;SDS011;3067;49.470;10.394;2023-12-20T10:37:14;3.33;;;1.67;;
6077;SDS011;3067;49.470;10.394;2023-12-20T10:39:43;3.47;;;1.63;;
6077;SDS011;3067;49.470;10.394;2023-12-20T10:42:10;4.30;;;1.83;;
6077;SDS011;3067;49.470;10.394;2023-12-20T10:44:38;10.73;;;1.40;;
6077;SDS011;3067;49.470;10.394;2023-12-20T10:47:05;2.10;;;1.73;;
6077;SDS011;3067;49.470;10.394;2023-12-20T10:49:36;3.40;;;1.50;;
6077;SDS011;3067;49.470;10.394;2023-12-20T10:52:04;2.93;;;1.80;;
6077;SDS011;3067;49.470;10.394;2023-12-20T10:54:32;2.20;;;2.00;;
6077;SDS011;3067;49.470;10.394;2023-12-20T10:57:01;1.80;;;1.70;;
6077;SDS011;3067;49.470;10.394;2023-12-20T10:59:31;1.50;;;1.50;;
6077;SDS011;3067;49.470;10.394;2023-12-20T11:02:02;4.97;;;2.60;;
6077;SDS011;3067;49.470;10.394;2023-12-20T11:04:34;3.60;;;2.70;;
6077;SDS011;3067;49.470;10.394;2023-12-20T11:07:08;1.30;;;1.20;;
6077;SDS011;3067;49.470;10.394;2023-12-20T11:09:47;4.03;;;2.30;;
6077;SDS011;3067;49.470;10.394;2023-12-20T11:12:28;3.77;;;1.80;;
6077;SDS011;3067;49.470;10.394;2023-12-20T11:15:04;2.10;;;1.90;;
6077;SDS011;3067;49.470;10.394;2023-12-20T11:17:32;3.73;;;1.60;;
6077;SDS011;3067;49.470;10.394;2023-12-20T11:20:06;4.60;;;2.20;;
6077;SDS011;3067;49.470;10.394;2023-12-20T11:22:37;5.27;;;1.77;;
6077;SDS011;3067;49.470;10.394;2023-12-20T11:25:08;3.97;;;2.40;;
6077;SDS011;3067;49.470;10.394;2023-12-20T11:27:40;2.00;;;1.90;;
6077;SDS011;3067;49.470;10.394;2023-12-20T11:30:08;2.37;;;2.17;;
6077;SDS011;3067;49.470;10.394;2023-12-20T11:32:36;4.00;;;2.10;;
6077;SDS011;3067;49.470;10.394;2023-12-20T11:35:16;3.37;;;2.10;;
6077;SDS011;3067;49.470;10.394;2023-12-20T11:37:45;2.27;;;2.13;;
6077;SDS011;3067;49.470;10.394;2023-12-20T11:40:14;2.50;;;1.70;;
6077;SDS011;3067;49.470;10.394;2023-12-20T11:42:44;2.50;;;1.90;;
6077;SDS011;3067;49.470;10.394;2023-12-20T11:45:15;3.73;;;1.97;;
6077;SDS011;3067;49.470;10.394;2023-12-20T11:47:47;6.33;;;2.33;;
6077;SDS011;3067;49.470;10.394;2023-12-20T11:50:16;2.83;;;2.60;;
6077;SDS011;3067;49.470;10.394;2023-12-20T11:52:43;4.50;;;2.00;;
6077;SDS011;3067;49.470;10.394;2023-12-20T11:55:10;2.27;;;2.07;;
6077;SDS011;3067;49.470;10.394;2023-12-20T11:57:38;2.33;;;2.23;;
6077;SDS011;3067;49.470;10.394;2023-12-20T12:00:06;2.20;;;2.10;;
6077;SDS011;3067;49.470;10.394;2023-12-20T12:02:34;4.03;;;2.07;;
6077;SDS011;3067;49.470;10.394;2023-12-20T12:05:01;6.03;;;2.83;;
6077;SDS011;3067;49.470;10.394;2023-12-20T12:07:30;4.63;;;2.40;;
6077;SDS011;3067;49.470;10.394;2023-12-20T12:09:57;3.10;;;2.10;;
6077;SDS011;3067;49.470;10.394;2023-12-20T12:12:24;3.70;;;1.50;;
6077;SDS011;3067;49.470;10.394;2023-12-20T12:14:52;2.60;;;2.37;;
6077;SDS011;3067;49.470;10.394;2023-12-20T12:17:23;5.43;;;2.73;;
6077;SDS011;3067;49.470;10.394;2023-12-20T12:19:50;3.80;;;2.50;;
6077;SDS011;3067;49.470;10.394;2023-12-20T12:22:27;2.10;;;1.90;;
6077;SDS011;3067;49.470;10.394;2023-12-20T12:24:55;1.90;;;1.80;;
6077;SDS011;3067;49.470;10.394;2023-12-20T12:27:27;3.40;;;2.00;;
6077;SDS011;3067;49.470;10.394;2023-12-20T12:30:00;3.40;;;2.03;;
6077;SDS011;3067;49.470;10.394;2023-12-20T12:32:30;2.50;;;1.90;;
6077;SDS011;3067;49.470;10.394;2023-12-20T12:34:57;2.20;;;2.10;;
6077;SDS011;3067;49.470;10.394;2023-12-20T12:37:24;7.70;;;2.00;;
6077;SDS011;3067;49.470;10.394;2023-12-20T12:39:53;5.10;;;1.80;;
6077;SDS011;3067;49.470;10.394;2023-12-20T12:42:20;5.27;;;2.97;;
6077;SDS011;3067;49.470;10.394;2023-12-20T12:44:50;4.47;;;2.50;;
6077;SDS011;3067;49.470;10.394;2023-12-20T12:47:18;4.07;;;2.23;;
6077;SDS011;3067;49.470;10.394;2023-12-20T12:49:46;4.10;;;2.60;;
6077;SDS011;3067;49.470;10.394;2023-12-20T12:52:14;5.40;;;2.60;;
6077;SDS011;3067;49.470;10.394;2023-12-20T12:54:41;4.83;;;2.60;;
6077;SDS011;3067;49.470;10.394;2023-12-20T12:57:10;5.80;;;3.70;;
6077;SDS011;3067;49.470;10.394;2023-12-20T12:59:37;13.10;;;4.30;;
6077;SDS011;3067;49.470;10.394;2023-12-20T13:02:04;9.33;;;3.40;;
6077;SDS011;3067;49.470;10.394;2023-12-20T13:04:31;3.87;;;2.40;;
6077;SDS011;3067;49.470;10.394;2023-12-20T13:07:00;4.90;;;2.30;;
6077;SDS011;3067;49.470;10.394;2023-12-20T13:09:27;6.57;;;2.60;;
6077;SDS011;3067;49.470;10.394;2023-12-20T13:11:54;2.60;;;1.80;;
6077;SDS011;3067;49.470;10.394;2023-12-20T13:14:21;5.20;;;2.00;;
6077;SDS011;3067;49.470;10.394;2023-12-20T13:16:48;2.23;;;1.70;;
6077;SDS011;3067;49.470;10.394;2023-12-20T13:19:15;5.53;;;2.20;;
6077;SDS011;3067;49.470;10.394;2023-12-20T13:21:42;3.10;;;2.30;;
6077;SDS011;3067;49.470;10.394;2023-12-20T13:24:11;2.63;;;1.80;;
6077;SDS011;3067;49.470;10.394;2023-12-20T13:26:38;6.47;;;1.70;;
6077;SDS011;3067;49.470;10.394;2023-12-20T13:29:05;1.70;;;1.60;;
6077;SDS011;3067;49.470;10.394;2023-12-20T13:31:32;1.80;;;1.20;;
6077;SDS011;3067;49.470;10.394;2023-12-20T13:33:58;1.70;;;1.60;;
6077;SDS011;3067;49.470;10.394;2023-12-20T13:36:25;4.00;;;1.43;;
6077;SDS011;3067;49.470;10.394;2023-12-20T13:38:52;1.67;;;1.57;;
6077;SDS011;3067;49.470;10.394;2023-12-20T13:41:21;2.03;;;1.50;;
6077;SDS011;3067;49.470;10.394;2023-12-20T13:43:48;2.00;;;1.90;;
6077;SDS011;3067;49.470;10.394;2023-12-20T13:46:15;1.93;;;1.80;;
6077;SDS011;3067;49.470;10.394;2023-12-20T13:48:42;2.03;;;1.77;;
6077;SDS011;3067;49.470;10.394;2023-12-20T13:51:10;3.97;;;2.03;;
6077;SDS011;3067;49.470;10.394;2023-12-20T13:53:37;4.63;;;1.97;;
6077;SDS011;3067;49.470;10.394;2023-12-20T13:56:04;4.53;;;2.00;;
6077;SDS011;3067;49.470;10.394;2023-12-20T13:58:33;2.23;;;2.03;;
6077;SDS011;3067;49.470;10.394;2023-12-20T14:01:00;1.87;;;1.77;;
6077;SDS011;3067;49.470;10.394;2023-12-20T14:03:27;8.10;;;2.33;;
6077;SDS011;3067;49.470;10.394;2023-12-20T14:05:56;2.40;;;2.20;;
6077;SDS011;3067;49.470;10.394;2023-12-20T14:08:23;2.17;;;1.97;;
6077;SDS011;3067;49.470;10.394;2023-12-20T14:10:50;3.80;;;2.40;;
6077;SDS011;3067;49.470;10.394;2023-12-20T14:13:17;3.20;;;2.27;;
6077;SDS011;3067;49.470;10.394;2023-12-20T14:15:46;3.17;;;1.87;;
6077;SDS011;3067;49.470;10.394;2023-12-20T14:18:14;4.53;;;2.40;;
6077;SDS011;3067;49.470;10.394;2023-12-20T14:20:42;2.90;;;1.83;;
6077;SDS011;3067;49.470;10.394;2023-12-20T14:23:09;2.53;;;2.33;;
6077;SDS011;3067;49.470;10.394;2023-12-20T14:25:36;5.23;;;1.90;;
6077;SDS011;3067;49.470;10.394;2023-12-20T14:28:04;4.43;;;2.40;;
6077;SDS011;3067;49.470;10.394;2023-12-20T14:30:31;6.37;;;2.40;;
6077;SDS011;3067;49.470;10.394;2023-12-20T14:33:00;3.93;;;2.17;;
6077;SDS011;3067;49.470;10.394;2023-12-20T14:35:27;4.27;;;2.30;;
6077;SDS011;3067;49.470;10.394;2023-12-20T14:37:54;4.53;;;2.30;;
6077;SDS011;3067;49.470;10.394;2023-12-20T14:40:21;2.90;;;2.40;;
6077;SDS011;3067;49.470;10.394;2023-12-20T14:42:48;4.33;;;2.43;;
6077;SDS011;3067;49.470;10.394;2023-12-20T14:45:15;5.07;;;2.73;;
6077;SDS011;3067;49.470;10.394;2023-12-20T14:47:43;2.20;;;2.10;;
6077;SDS011;3067;49.470;10.394;2023-12-20T14:50:14;2.43;;;2.33;;
6077;SDS011;3067;49.470;10.394;2023-12-20T14:52:43;2.90;;;2.60;;
6077;SDS011;3067;49.470;10.394;2023-12-20T14:55:11;2.00;;;2.00;;
6077;SDS011;3067;49.470;10.394;2023-12-20T14:57:38;2.53;;;2.13;;
6077;SDS011;3067;49.470;10.394;2023-12-20T15:00:05;5.50;;;1.93;;
6077;SDS011;3067;49.470;10.394;2023-12-20T15:02:33;2.57;;;2.37;;
6077;SDS011;3067;49.470;10.394;2023-12-20T15:05:00;5.77;;;2.30;;